createdAt,value
2022-11-27T00:02:44.222Z,277.84
2022-11-27T00:07:51.395Z,277.87
2022-11-27T00:12:58.462Z,277.14
2022-11-27T00:18:05.598Z,276.92
2022-11-27T00:23:12.767Z,277.54
2022-11-27T00:28:19.950Z,278.00
2022-11-27T00:33:27.139Z,278.81
2022-11-27T00:38:38.491Z,278.89
2022-11-27T00:43:45.471Z,279.22
2022-11-27T00:48:48.776Z,280.17
2022-11-27T00:53:55.934Z,280.91
2022-11-27T00:59:03.169Z,281.45
2022-11-27T01:04:10.339Z,281.41
2022-11-27T01:09:17.560Z,281.21
2022-11-27T01:14:24.860Z,281.40
2022-11-27T01:19:31.954Z,282.67
2022-11-27T01:24:39.425Z,284.25
2022-11-27T01:29:46.359Z,284.85
2022-11-27T01:34:54.492Z,285.65
2022-11-27T01:40:00.785Z,286.12
2022-11-27T01:45:08.038Z,286.67
2022-11-27T01:50:15.243Z,287.30
2022-11-27T01:55:22.633Z,287.31
2022-11-27T02:00:29.863Z,287.99
2022-11-27T02:05:37.038Z,287.74
2022-11-27T02:10:44.265Z,287.83
2022-11-27T02:15:51.481Z,288.41
2022-11-27T02:20:58.652Z,289.47
2022-11-27T02:26:05.885Z,290.10
2022-11-27T02:31:13.183Z,290.69
2022-11-27T02:36:20.555Z,291.23
2022-11-27T02:41:27.754Z,291.04
2022-11-27T02:46:35.157Z,290.28
2022-11-27T02:51:42.187Z,291.21
2022-11-27T02:56:49.374Z,291.56
2022-11-27T03:01:56.795Z,291.72
2022-11-27T03:07:03.846Z,292.13
2022-11-27T03:12:11.106Z,292.81
2022-11-27T03:17:18.410Z,292.81
2022-11-27T03:22:25.483Z,293.37
2022-11-27T03:27:32.638Z,293.41
2022-11-27T03:32:39.963Z,293.74
2022-11-27T03:37:47.068Z,293.86
2022-11-27T03:42:54.237Z,293.26
2022-11-27T03:48:07.417Z,293.34
2022-11-27T03:53:08.755Z,292.95
2022-11-27T03:58:15.858Z,293.29
2022-11-27T04:03:23.078Z,294.24
2022-11-27T04:08:30.457Z,295.07
2022-11-27T04:13:37.503Z,295.10
2022-11-27T04:18:44.743Z,294.61
2022-11-27T04:23:52.067Z,293.24
2022-11-27T04:28:59.166Z,293.37
2022-11-27T04:34:06.408Z,292.77
2022-11-27T04:39:13.698Z,293.32
2022-11-27T04:44:20.795Z,292.41
2022-11-27T04:49:27.970Z,293.07
2022-11-27T04:54:35.313Z,292.86
2022-11-27T04:59:42.379Z,292.77
2022-11-27T05:04:49.612Z,293.10
2022-11-27T05:09:56.965Z,293.21
2022-11-27T05:15:04.804Z,293.55
2022-11-27T05:20:11.324Z,293.25
2022-11-27T05:25:18.648Z,293.85
2022-11-27T05:30:25.795Z,294.26
2022-11-27T05:35:33.046Z,294.40
2022-11-27T05:40:40.371Z,294.63
2022-11-27T05:45:47.489Z,295.15
2022-11-27T05:50:54.752Z,296.20
2022-11-27T05:56:07.099Z,296.42
2022-11-27T06:01:09.287Z,296.05
2022-11-27T06:06:16.370Z,296.43
2022-11-27T06:11:23.568Z,297.06
2022-11-27T06:16:30.977Z,296.68
2022-11-27T06:21:38.007Z,296.82
2022-11-27T06:26:45.258Z,297.01
2022-11-27T06:31:52.600Z,296.73
2022-11-27T06:36:59.663Z,297.23
2022-11-27T06:42:06.879Z,296.88
2022-11-27T06:47:14.195Z,296.31
2022-11-27T06:52:21.250Z,296.31
2022-11-27T06:57:28.415Z,296.46
2022-11-27T07:02:35.800Z,295.81
2022-11-27T07:07:44.009Z,295.87
2022-11-27T07:12:49.994Z,295.88
2022-11-27T07:17:57.333Z,295.88
2022-11-27T07:23:04.423Z,296.43
2022-11-27T07:28:15.987Z,295.86
2022-11-27T07:33:19.096Z,295.07
2022-11-27T07:38:26.194Z,295.23
2022-11-27T07:43:33.337Z,295.26
2022-11-27T07:48:40.664Z,295.55
2022-11-27T07:53:47.762Z,295.53
2022-11-27T07:58:54.951Z,296.46
2022-11-27T08:04:08.165Z,297.04
2022-11-27T08:09:09.486Z,297.43
2022-11-27T08:14:16.596Z,296.64
2022-11-27T08:19:23.776Z,296.65
2022-11-27T08:24:31.106Z,296.99
2022-11-27T08:29:38.131Z,297.02
2022-11-27T08:34:45.315Z,297.98
2022-11-27T08:39:52.617Z,298.85
2022-11-27T08:44:59.723Z,299.40
2022-11-27T08:50:06.944Z,299.80
2022-11-27T08:55:14.222Z,299.38
2022-11-27T09:00:26.394Z,300.80
2022-11-27T09:05:28.538Z,302.40
2022-11-27T09:10:35.836Z,302.81
2022-11-27T09:15:42.913Z,301.96
2022-11-27T09:20:50.119Z,301.54
2022-11-27T09:25:57.506Z,300.88
2022-11-27T09:31:04.628Z,300.93
2022-11-27T09:36:11.852Z,302.51
2022-11-27T09:41:19.191Z,304.57
2022-11-27T09:46:26.303Z,302.51
2022-11-27T09:51:33.367Z,302.27
2022-11-27T09:56:40.682Z,302.72
2022-11-27T10:01:51.027Z,303.31
2022-11-27T10:06:55.136Z,303.58
2022-11-27T10:12:02.523Z,303.78
2022-11-27T10:17:09.655Z,303.81
2022-11-27T10:22:20.949Z,303.59
2022-11-27T10:27:24.115Z,303.25
2022-11-27T10:32:54.688Z,304.54
2022-11-27T10:37:39.021Z,304.67
2022-11-27T10:42:46.316Z,305.26
2022-11-27T10:47:53.421Z,304.79
2022-11-27T10:53:00.603Z,305.33
2022-11-27T10:58:07.946Z,306.68
2022-11-27T11:03:15.028Z,306.71
2022-11-27T11:08:22.240Z,308.68
2022-11-27T11:13:29.569Z,309.39
2022-11-27T11:18:36.648Z,309.68
2022-11-27T11:23:43.853Z,310.56
2022-11-27T11:28:51.171Z,311.27
2022-11-27T11:33:58.243Z,312.23
2022-11-27T11:39:05.463Z,312.64
2022-11-27T11:44:12.783Z,314.00
2022-11-27T11:49:19.886Z,314.79
2022-11-27T11:54:27.096Z,316.02
2022-11-27T11:59:34.398Z,317.19
2022-11-27T12:04:41.884Z,317.38
2022-11-27T12:09:48.886Z,318.66
2022-11-27T12:14:56.205Z,318.35
2022-11-27T12:20:03.306Z,319.57
2022-11-27T12:25:10.507Z,320.54
2022-11-27T12:30:17.896Z,321.00
2022-11-27T12:35:24.928Z,322.34
2022-11-27T12:40:32.154Z,323.12
2022-11-27T12:45:39.573Z,324.43
2022-11-27T12:50:46.640Z,324.41
2022-11-27T12:55:53.883Z,325.29
2022-11-27T13:01:01.897Z,326.08
2022-11-27T13:06:08.893Z,326.86
2022-11-27T13:11:16.300Z,327.78
2022-11-27T13:16:23.736Z,328.26
2022-11-27T13:21:30.735Z,328.57
2022-11-27T13:26:38.006Z,328.78
2022-11-27T13:31:45.579Z,329.94
2022-11-27T13:36:52.711Z,330.12
2022-11-27T13:42:00.522Z,331.10
2022-11-27T13:47:13.969Z,331.97
2022-11-27T13:52:15.384Z,332.67
2022-11-27T13:57:22.575Z,332.55
2022-11-27T14:02:29.886Z,332.32
2022-11-27T14:07:37.278Z,332.61
2022-11-27T14:12:44.312Z,332.34
2022-11-27T14:17:51.784Z,332.69
2022-11-27T14:23:14.338Z,333.19
2022-11-27T14:28:06.410Z,332.86
2022-11-27T14:33:13.671Z,333.42
2022-11-27T14:38:21.334Z,335.74
2022-11-27T14:43:28.469Z,336.50
2022-11-27T14:48:36.033Z,337.44
2022-11-27T14:53:43.522Z,337.56
2022-11-27T14:58:50.951Z,337.59
2022-11-27T15:03:58.375Z,337.54
2022-11-27T15:09:43.298Z,338.43
2022-11-27T15:14:13.164Z,339.74
2022-11-27T15:19:20.694Z,340.84
2022-11-27T15:24:28.139Z,340.94
2022-11-27T15:29:35.231Z,341.94
2022-11-27T15:34:42.688Z,342.41
2022-11-27T15:39:49.747Z,343.87
2022-11-27T15:44:56.838Z,344.63
2022-11-27T15:50:04.119Z,344.98
2022-11-27T15:55:11.477Z,345.76
2022-11-27T16:00:18.851Z,345.94
2022-11-27T16:05:26.458Z,345.96
2022-11-27T16:10:33.964Z,346.26
2022-11-27T16:15:41.390Z,346.35
2022-11-27T16:20:48.999Z,346.39
2022-11-27T16:25:56.471Z,346.35
2022-11-27T16:31:03.819Z,347.08
2022-11-27T16:36:11.530Z,347.97
2022-11-27T16:41:19.276Z,348.31
2022-11-27T16:46:26.654Z,348.86
2022-11-27T16:51:33.999Z,348.89
2022-11-27T16:56:41.489Z,349.44
2022-11-27T17:01:50.039Z,350.61
2022-11-27T17:06:57.753Z,351.73
2022-11-27T17:12:05.145Z,352.46
2022-11-27T17:17:12.544Z,352.66
2022-11-27T17:22:20.056Z,353.49
2022-11-27T17:27:29.428Z,353.74
2022-11-27T17:32:36.719Z,354.15
2022-11-27T17:37:44.230Z,355.23
2022-11-27T17:42:51.968Z,355.86
2022-11-27T17:47:59.562Z,356.20
2022-11-27T17:53:07.080Z,356.84
2022-11-27T17:58:14.745Z,357.10
2022-11-27T18:03:21.947Z,357.13
2022-11-27T18:08:29.416Z,357.64
2022-11-27T18:13:37.237Z,356.92
2022-11-27T18:18:44.737Z,356.51
2022-11-27T18:28:59.982Z,357.43
2022-11-27T18:34:07.582Z,357.91
2022-11-27T18:39:15.194Z,358.67
2022-11-27T18:44:22.902Z,359.07
2022-11-27T18:49:30.098Z,359.23
2022-11-27T18:54:37.636Z,360.18
2022-11-27T18:59:50.474Z,359.62
2022-11-27T19:04:53.086Z,360.32
2022-11-27T19:10:00.676Z,361.48
2022-11-27T19:15:08.397Z,362.30
2022-11-27T19:20:16.127Z,363.19
2022-11-27T19:25:23.627Z,363.94
2022-11-27T19:30:34.219Z,364.55
2022-11-27T19:35:39.597Z,364.81
2022-11-27T19:40:47.083Z,365.36
2022-11-27T19:45:54.794Z,365.80
2022-11-27T19:51:03.451Z,366.41
2022-11-27T19:56:11.049Z,367.38
2022-11-27T20:01:18.863Z,367.19
2022-11-27T20:06:26.608Z,367.84
2022-11-27T20:11:35.329Z,368.24
2022-11-27T20:16:42.062Z,368.68
2022-11-27T20:21:49.860Z,369.61
2022-11-27T20:26:57.461Z,370.25
2022-11-27T20:32:05.185Z,370.50
2022-11-27T20:37:12.800Z,370.15
2022-11-27T20:42:20.298Z,371.17
2022-11-27T20:47:27.616Z,370.76
2022-11-27T20:52:34.913Z,371.77
2022-11-27T20:57:42.318Z,372.58
2022-11-27T21:02:50.028Z,372.55
2022-11-27T21:07:57.510Z,372.76
2022-11-27T21:13:04.493Z,373.79
2022-11-27T21:18:11.767Z,373.53
2022-11-27T21:23:19.387Z,374.08
2022-11-27T21:28:26.878Z,374.62
2022-11-27T21:33:34.186Z,375.72
2022-11-27T21:38:41.826Z,375.87
2022-11-27T21:43:49.042Z,376.46
2022-11-27T21:48:56.231Z,377.28
2022-11-27T21:54:03.523Z,377.95
2022-11-27T21:59:10.629Z,378.21
2022-11-27T22:04:17.911Z,378.14
2022-11-27T22:09:25.152Z,378.12
2022-11-27T22:14:32.292Z,378.65
2022-11-27T22:19:39.440Z,379.56
2022-11-27T22:24:46.781Z,380.35
2022-11-27T22:29:53.849Z,380.91
2022-11-27T22:35:01.082Z,380.14
2022-11-27T22:40:08.459Z,379.72
2022-11-27T22:45:15.596Z,379.55
2022-11-27T22:50:23.449Z,379.12
2022-11-27T22:55:30.815Z,379.00
2022-11-27T23:00:38.122Z,379.26
2022-11-27T23:05:45.719Z,378.55
2022-11-27T23:10:53.036Z,378.86
2022-11-27T23:16:00.153Z,379.88
2022-11-27T23:21:07.439Z,380.59
2022-11-27T23:26:17.866Z,379.71
2022-11-27T23:31:29.802Z,380.31
2022-11-27T23:36:29.010Z,380.73
2022-11-27T23:41:36.394Z,382.15
2022-11-27T23:46:43.454Z,382.72
2022-11-27T23:51:50.661Z,383.62
2022-11-27T23:56:57.955Z,384.65
